createdAt,value
2022-11-18T00:02:16.017Z,91.06
2022-11-18T00:04:44.052Z,91.04
2022-11-18T00:07:12.085Z,91.11
2022-11-18T00:09:40.196Z,91.16
2022-11-18T00:12:26.619Z,91.17
2022-11-18T00:14:54.561Z,91.17
2022-11-18T00:17:22.789Z,91.21
2022-11-18T00:19:50.929Z,91.32
2022-11-18T00:22:20.472Z,91.31
2022-11-18T00:24:49.592Z,91.27
2022-11-18T00:27:19.843Z,91.22
2022-11-18T00:29:47.895Z,91.28
2022-11-18T00:32:16.018Z,91.29
2022-11-18T00:34:44.155Z,91.25
2022-11-18T00:37:12.026Z,91.26
2022-11-18T00:39:44.169Z,91.37
2022-11-18T00:42:30.344Z,91.39
2022-11-18T00:44:58.647Z,91.40
2022-11-18T00:47:26.687Z,91.55
2022-11-18T00:49:54.654Z,91.56
2022-11-18T00:52:22.475Z,91.57
2022-11-18T00:54:50.777Z,91.51
2022-11-18T00:57:25.981Z,91.45
2022-11-18T00:59:53.951Z,91.42
2022-11-18T01:02:23.192Z,91.40
2022-11-18T01:04:51.398Z,91.39
2022-11-18T01:07:19.388Z,91.35
2022-11-18T01:09:47.482Z,91.45
2022-11-18T01:12:33.560Z,91.51
2022-11-18T01:15:01.730Z,91.61
2022-11-18T01:17:33.054Z,91.54
2022-11-18T01:20:01.141Z,91.46
2022-11-18T01:22:28.966Z,91.56
2022-11-18T01:24:57.102Z,91.67
2022-11-18T01:27:25.118Z,91.81
2022-11-18T01:29:53.016Z,91.96
2022-11-18T01:32:25.500Z,92.12
2022-11-18T01:34:51.007Z,92.09
2022-11-18T01:37:19.146Z,92.28
2022-11-18T01:39:47.094Z,92.31
2022-11-18T01:42:17.320Z,92.37
2022-11-18T01:45:03.757Z,92.45
2022-11-18T01:47:36.696Z,92.41
2022-11-18T01:50:06.846Z,92.44
2022-11-18T01:52:35.720Z,92.41
2022-11-18T01:55:14.499Z,92.42
2022-11-18T01:57:43.370Z,92.37
2022-11-18T02:00:12.854Z,92.31
2022-11-18T02:02:43.901Z,92.27
2022-11-18T02:05:12.270Z,92.09
2022-11-18T02:07:43.305Z,92.04
2022-11-18T02:10:24.340Z,92.12
2022-11-18T02:12:53.473Z,92.29
2022-11-18T02:15:32.762Z,92.17
2022-11-18T02:18:15.279Z,92.17
2022-11-18T02:20:46.218Z,92.29
2022-11-18T02:23:19.616Z,92.33
2022-11-18T02:26:04.334Z,92.33
2022-11-18T02:29:06.613Z,92.19
2022-11-18T02:31:59.306Z,92.26
2022-11-18T02:34:40.973Z,92.40
2022-11-18T02:37:38.584Z,92.29
2022-11-18T02:40:27.304Z,92.39
2022-11-18T02:43:02.522Z,92.42
2022-11-18T02:45:32.107Z,92.40
2022-11-18T02:48:07.819Z,92.40
2022-11-18T02:50:39.073Z,92.35
2022-11-18T02:53:10.874Z,92.35
2022-11-18T02:55:44.263Z,92.34
2022-11-18T02:58:23.741Z,92.28
2022-11-18T03:00:57.842Z,92.31
2022-11-18T03:03:35.697Z,92.31
2022-11-18T03:06:30.252Z,92.34
2022-11-18T03:09:28.429Z,92.33
2022-11-18T03:12:32.825Z,92.30
2022-11-18T03:15:09.214Z,92.33
2022-11-18T03:17:51.059Z,92.41
2022-11-18T03:20:33.159Z,92.38
2022-11-18T03:23:27.558Z,92.36
2022-11-18T03:26:02.403Z,92.37
2022-11-18T03:28:47.061Z,92.37
2022-11-18T03:31:30.194Z,92.39
2022-11-18T03:34:09.251Z,92.24
2022-11-18T03:36:41.861Z,92.21
2022-11-18T03:39:19.500Z,92.28
2022-11-18T03:42:10.128Z,92.35
2022-11-18T03:44:41.744Z,92.41
2022-11-18T03:47:24.244Z,92.49
2022-11-18T03:50:01.853Z,92.46
2022-11-18T03:52:35.069Z,92.42
2022-11-18T03:55:08.637Z,92.42
2022-11-18T03:57:48.138Z,92.44
2022-11-18T04:00:19.004Z,92.47
2022-11-18T04:02:48.948Z,92.48
2022-11-18T04:05:18.963Z,92.50
2022-11-18T04:08:03.462Z,92.51
2022-11-18T04:10:53.372Z,92.51
2022-11-18T04:13:28.715Z,92.52
2022-11-18T04:15:56.683Z,92.54
2022-11-18T04:18:24.684Z,92.48
2022-11-18T04:20:52.960Z,92.42
2022-11-18T04:23:22.625Z,92.33
2022-11-18T04:25:50.414Z,92.37
2022-11-18T04:28:18.388Z,92.38
2022-11-18T04:30:48.237Z,92.37
2022-11-18T04:33:15.912Z,92.44
2022-11-18T04:35:46.533Z,92.39
2022-11-18T04:38:17.849Z,92.33
2022-11-18T04:40:46.095Z,92.36
2022-11-18T04:43:13.880Z,92.37
2022-11-18T04:45:41.720Z,92.35
2022-11-18T04:48:09.614Z,92.24
2022-11-18T04:50:37.442Z,92.29
2022-11-18T04:53:07.337Z,92.28
2022-11-18T04:55:39.302Z,92.28
2022-11-18T04:58:07.274Z,92.29
2022-11-18T05:00:35.245Z,92.24
2022-11-18T05:03:03.284Z,92.18
2022-11-18T05:05:31.205Z,92.20
2022-11-18T05:07:59.239Z,92.24
2022-11-18T05:10:27.085Z,92.28
2022-11-18T05:12:54.823Z,92.27
2022-11-18T05:15:24.128Z,92.28
2022-11-18T05:17:52.223Z,92.23
2022-11-18T05:24:07.583Z,92.32
2022-11-18T05:26:55.791Z,92.43
2022-11-18T05:29:34.277Z,92.48
2022-11-18T05:32:09.315Z,92.49
2022-11-18T05:34:56.473Z,92.47
2022-11-18T05:37:43.624Z,92.51
2022-11-18T05:40:41.424Z,92.54
2022-11-18T05:46:13.846Z,92.60
2022-11-18T05:56:24.060Z,92.67
2022-11-18T05:58:51.983Z,92.68
2022-11-18T06:01:37.078Z,92.76
2022-11-18T06:04:17.230Z,92.76
2022-11-18T06:06:48.635Z,92.79
2022-11-18T06:09:22.013Z,92.79
2022-11-18T06:11:56.685Z,92.77
2022-11-18T06:14:30.371Z,92.81
2022-11-18T06:17:04.585Z,92.87
2022-11-18T06:19:33.962Z,93.00
2022-11-18T06:22:09.237Z,93.03
2022-11-18T06:24:38.192Z,92.97
2022-11-18T06:27:06.538Z,92.84
2022-11-18T06:29:36.288Z,92.79
2022-11-18T06:32:04.481Z,92.78
2022-11-18T06:34:36.737Z,92.78
2022-11-18T06:37:22.434Z,92.81
2022-11-18T06:40:01.734Z,92.81
2022-11-18T06:42:50.426Z,92.82
2022-11-18T06:45:20.872Z,92.88
2022-11-18T06:51:10.990Z,92.91
2022-11-18T06:53:39.274Z,93.02
2022-11-18T06:56:10.493Z,93.03
2022-11-18T06:58:38.806Z,92.99
2022-11-18T07:01:17.921Z,93.07
2022-11-18T07:03:50.047Z,93.17
2022-11-18T07:06:24.723Z,93.16
2022-11-18T07:08:53.163Z,93.28
2022-11-18T07:11:26.007Z,93.24
2022-11-18T07:13:54.207Z,93.16
2022-11-18T07:16:36.285Z,93.09
2022-11-18T07:19:12.931Z,93.24
2022-11-18T07:21:50.605Z,93.21
2022-11-18T07:24:19.284Z,93.04
2022-11-18T07:26:56.196Z,93.17
2022-11-18T07:29:25.214Z,93.06
2022-11-18T07:32:00.163Z,92.95
2022-11-18T07:34:44.077Z,93.07
2022-11-18T07:37:13.781Z,92.81
2022-11-18T07:39:41.645Z,93.06
2022-11-18T07:42:10.104Z,92.99
2022-11-18T07:44:38.277Z,92.71
2022-11-18T07:47:06.301Z,92.62
2022-11-18T07:49:34.284Z,92.14
2022-11-18T07:52:02.302Z,91.96
2022-11-18T07:54:30.263Z,91.75
2022-11-18T07:56:58.313Z,91.34
2022-11-18T07:59:26.808Z,90.75
2022-11-18T08:01:57.349Z,90.57
2022-11-18T08:04:25.779Z,90.52
2022-11-18T08:06:53.654Z,90.35
2022-11-18T08:09:21.783Z,90.12
2022-11-18T08:11:50.204Z,89.32
2022-11-18T08:14:18.569Z,89.18
2022-11-18T08:16:53.125Z,89.17
2022-11-18T08:19:23.420Z,88.84
2022-11-18T08:21:54.546Z,88.06
2022-11-18T08:24:22.531Z,88.07
2022-11-18T08:26:50.482Z,88.09
2022-11-18T08:29:23.550Z,87.86
2022-11-18T08:31:48.011Z,87.71
2022-11-18T08:34:16.048Z,87.41
2022-11-18T08:36:45.422Z,87.44
2022-11-18T08:39:17.504Z,86.82
2022-11-18T08:41:46.751Z,87.15
2022-11-18T08:44:19.926Z,87.31
2022-11-18T08:46:49.770Z,86.14
2022-11-18T08:49:18.000Z,86.28
2022-11-18T08:51:46.525Z,85.65
2022-11-18T08:54:14.584Z,85.63
2022-11-18T08:56:42.450Z,85.38
2022-11-18T08:59:10.280Z,85.37
2022-11-18T09:04:41.585Z,83.65
2022-11-18T09:07:11.894Z,83.60
2022-11-18T09:09:39.732Z,82.48
2022-11-18T09:12:08.888Z,82.06
2022-11-18T09:15:14.765Z,79.92
2022-11-18T09:18:09.120Z,78.63
2022-11-18T09:20:56.995Z,76.87
2022-11-18T09:23:49.492Z,75.43
2022-11-18T09:26:37.995Z,75.71
2022-11-18T09:29:24.317Z,76.11
2022-11-18T09:31:57.499Z,75.66
2022-11-18T09:34:26.288Z,74.17
2022-11-18T09:37:18.466Z,73.39
2022-11-18T09:39:54.476Z,71.80
2022-11-18T09:42:57.286Z,72.65
2022-11-18T09:45:28.514Z,73.30
2022-11-18T09:47:59.381Z,72.88
2022-11-18T09:50:50.163Z,72.59
2022-11-18T09:53:24.579Z,72.75
2022-11-18T09:55:54.893Z,73.03
2022-11-18T09:58:35.057Z,72.45
2022-11-18T10:01:47.208Z,71.16
2022-11-18T10:05:23.783Z,71.11
2022-11-18T10:08:42.218Z,71.31
2022-11-18T10:11:29.080Z,72.00
2022-11-18T10:14:41.427Z,73.01
2022-11-18T10:17:32.770Z,73.50
2022-11-18T10:20:17.739Z,72.89
2022-11-18T10:23:33.489Z,72.99
2022-11-18T10:26:03.266Z,73.36
2022-11-18T10:28:31.911Z,73.48
2022-11-18T10:31:07.288Z,73.65
2022-11-18T10:33:41.394Z,73.82
2022-11-18T10:36:28.653Z,74.05
2022-11-18T10:39:23.596Z,74.23
2022-11-18T10:42:03.979Z,74.14
2022-11-18T10:44:41.804Z,74.01
2022-11-18T10:47:33.162Z,74.18
2022-11-18T10:50:09.910Z,74.01
2022-11-18T10:52:54.415Z,74.12
2022-11-18T10:55:31.279Z,74.16
2022-11-18T10:58:20.351Z,74.10
2022-11-18T11:00:53.425Z,74.26
2022-11-18T11:03:32.062Z,73.79
2022-11-18T11:06:29.638Z,73.93
2022-11-18T11:09:27.603Z,74.07
2022-11-18T11:12:18.260Z,74.37
2022-11-18T11:15:00.985Z,74.52
2022-11-18T11:17:38.235Z,74.75
2022-11-18T11:20:23.315Z,74.69
2022-11-18T11:22:51.585Z,74.54
2022-11-18T11:28:48.642Z,74.31
2022-11-18T11:31:46.026Z,73.77
2022-11-18T11:34:47.015Z,73.89
2022-11-18T11:37:41.575Z,73.54
2022-11-18T11:40:28.817Z,73.47
2022-11-18T11:43:23.347Z,73.33
2022-11-18T11:46:05.374Z,73.59
2022-11-18T11:48:41.975Z,73.57
2022-11-18T11:51:29.507Z,73.50
2022-11-18T11:54:02.855Z,73.55
2022-11-18T11:57:16.203Z,73.50
2022-11-18T12:00:07.848Z,73.43
2022-11-18T12:02:58.985Z,73.62
2022-11-18T12:05:33.231Z,73.82
2022-11-18T12:08:17.053Z,73.69
2022-11-18T12:11:02.786Z,73.65
2022-11-18T12:13:55.549Z,73.79
2022-11-18T12:17:03.106Z,73.41
2022-11-18T12:19:31.124Z,73.64
2022-11-18T12:22:00.583Z,73.53
2022-11-18T12:24:37.980Z,73.50
2022-11-18T12:27:11.861Z,73.23
2022-11-18T12:29:57.260Z,73.10
2022-11-18T12:32:47.823Z,73.17
2022-11-18T12:35:38.543Z,73.07
2022-11-18T12:38:41.848Z,73.27
2022-11-18T12:42:01.000Z,73.32
2022-11-18T12:44:30.879Z,73.39
2022-11-18T12:47:02.596Z,73.35
2022-11-18T12:49:35.956Z,73.44
2022-11-18T12:52:26.103Z,73.43
2022-11-18T12:54:54.188Z,73.48
2022-11-18T12:57:34.674Z,73.53
2022-11-18T13:00:26.221Z,73.39
2022-11-18T13:02:58.510Z,73.25
2022-11-18T13:05:33.550Z,73.30
2022-11-18T13:08:15.261Z,73.18
2022-11-18T13:10:56.180Z,73.28
2022-11-18T13:13:29.445Z,73.21
2022-11-18T13:16:39.217Z,73.39
2022-11-18T13:19:07.207Z,73.45
2022-11-18T13:21:53.564Z,73.26
2022-11-18T13:24:22.891Z,73.44
2022-11-18T13:26:59.291Z,73.60
2022-11-18T13:29:41.584Z,73.38
2022-11-18T13:32:25.443Z,73.44
2022-11-18T13:35:12.057Z,73.45
2022-11-18T13:37:57.360Z,73.11
2022-11-18T13:40:32.089Z,72.80
2022-11-18T13:43:00.210Z,73.14
2022-11-18T13:45:29.939Z,73.08
2022-11-18T13:48:13.774Z,73.13
2022-11-18T13:50:49.133Z,73.38
2022-11-18T13:53:36.745Z,73.58
2022-11-18T13:56:31.673Z,73.74
2022-11-18T13:59:28.802Z,73.91
2022-11-18T14:01:34.879Z,74.12
2022-11-18T14:04:19.382Z,74.50
2022-11-18T14:06:49.752Z,74.70
2022-11-18T14:09:30.771Z,74.88
2022-11-18T14:12:07.508Z,75.22
2022-11-18T14:14:44.572Z,75.51
2022-11-18T14:17:27.505Z,75.77
2022-11-18T14:19:58.465Z,76.30
2022-11-18T14:22:30.473Z,76.60
2022-11-18T14:25:06.320Z,76.91
2022-11-18T14:27:48.743Z,77.26
2022-11-18T14:30:41.127Z,77.51
2022-11-18T14:33:20.214Z,77.72
2022-11-18T14:36:10.652Z,78.06
2022-11-18T14:39:25.414Z,78.35
2022-11-18T14:41:44.912Z,78.79
2022-11-18T14:44:15.308Z,79.12
2022-11-18T14:46:51.995Z,79.39
2022-11-18T14:49:23.793Z,79.57
2022-11-18T14:51:54.562Z,79.76
2022-11-18T14:54:26.669Z,79.98
2022-11-18T14:57:00.907Z,80.07
2022-11-18T14:59:29.213Z,80.27
2022-11-18T15:04:59.613Z,80.75
2022-11-18T15:07:47.022Z,80.85
2022-11-18T15:10:21.305Z,81.08
2022-11-18T15:13:00.970Z,81.36
2022-11-18T15:16:09.572Z,81.49
2022-11-18T15:19:07.342Z,81.63
2022-11-18T15:36:45.382Z,83.17
2022-11-18T15:39:07.293Z,83.09
2022-11-18T15:41:39.930Z,83.17
2022-11-18T15:44:19.124Z,83.36
2022-11-18T15:46:56.888Z,83.47
2022-11-18T15:49:30.835Z,83.55
2022-11-18T15:52:24.330Z,83.77
2022-11-18T15:54:58.533Z,84.04
2022-11-18T15:57:26.510Z,84.23
2022-11-18T15:59:54.694Z,84.38
2022-11-18T16:02:25.386Z,84.54
2022-11-18T16:05:20.665Z,84.62
2022-11-18T16:07:55.035Z,84.84
2022-11-18T16:10:45.257Z,84.99
2022-11-18T16:13:23.095Z,85.15
2022-11-18T16:15:56.350Z,85.44
2022-11-18T16:18:35.367Z,85.52
2022-11-18T16:21:04.878Z,85.83
2022-11-18T16:23:43.665Z,85.83
2022-11-18T16:26:41.576Z,85.94
2022-11-18T16:29:40.735Z,86.09
2022-11-18T16:32:41.167Z,86.29
2022-11-18T16:35:09.371Z,86.61
2022-11-18T16:37:37.442Z,86.76
2022-11-18T16:40:09.467Z,86.92
2022-11-18T16:42:37.696Z,87.33
2022-11-18T16:45:10.026Z,87.32
2022-11-18T16:47:38.918Z,87.45
2022-11-18T16:50:07.253Z,87.68
2022-11-18T16:52:36.300Z,87.84
2022-11-18T16:55:05.495Z,88.02
2022-11-18T17:13:33.762Z,89.24
2022-11-18T17:16:17.093Z,89.32
2022-11-18T17:18:56.644Z,89.48
2022-11-18T17:21:24.718Z,89.43
2022-11-18T17:27:08.516Z,89.67
2022-11-18T17:29:37.082Z,89.98
2022-11-18T17:32:08.885Z,90.02
2022-11-18T17:34:52.899Z,90.32
2022-11-18T17:37:19.511Z,90.71
2022-11-18T17:39:58.879Z,90.59
2022-11-18T17:42:33.139Z,90.79
2022-11-18T17:45:11.349Z,90.94
2022-11-18T17:48:10.195Z,91.20
2022-11-18T17:50:42.333Z,91.29
2022-11-18T17:53:51.808Z,91.31
2022-11-18T17:56:34.003Z,91.60
2022-11-18T17:59:02.942Z,91.74
2022-11-18T18:01:31.297Z,91.71
2022-11-18T18:03:59.604Z,91.70
2022-11-18T18:06:27.817Z,91.95
2022-11-18T18:08:58.052Z,92.22
2022-11-18T18:11:28.147Z,92.13
2022-11-18T18:14:17.643Z,92.09
2022-11-18T18:16:52.087Z,92.11
2022-11-18T18:19:22.973Z,92.14
2022-11-18T18:21:52.650Z,92.16
2022-11-18T18:24:21.946Z,92.33
2022-11-18T18:26:50.811Z,92.35
2022-11-18T18:29:18.869Z,92.24
2022-11-18T18:31:46.627Z,92.22
2022-11-18T18:34:15.406Z,92.20
2022-11-18T18:36:43.383Z,92.23
2022-11-18T18:39:11.409Z,92.15
2022-11-18T18:41:41.488Z,92.22
2022-11-18T18:44:12.482Z,92.25
2022-11-18T18:46:40.988Z,92.22
2022-11-18T18:49:13.408Z,92.35
2022-11-18T18:51:48.091Z,92.34
2022-11-18T18:54:19.962Z,92.37
2022-11-18T18:56:51.367Z,92.35
2022-11-18T18:59:19.374Z,92.36
2022-11-18T19:01:50.541Z,92.32
2022-11-18T19:07:36.424Z,92.31
2022-11-18T19:10:06.996Z,92.28
2022-11-18T19:12:45.929Z,92.19
2022-11-18T19:15:14.473Z,92.26
2022-11-18T19:17:42.770Z,92.24
2022-11-18T19:20:31.976Z,92.31
2022-11-18T19:23:10.066Z,92.31
2022-11-18T19:25:38.041Z,92.26
2022-11-18T19:31:53.321Z,92.40
2022-11-18T19:34:28.359Z,92.41
2022-11-18T19:36:56.773Z,92.42
2022-11-18T19:39:25.393Z,92.44
2022-11-18T19:42:25.808Z,92.45
2022-11-18T19:58:54.372Z,92.36
2022-11-18T20:01:28.218Z,92.36
2022-11-18T20:04:07.079Z,92.36
2022-11-18T20:06:42.704Z,92.42
2022-11-18T20:09:11.430Z,92.40
2022-11-18T20:11:39.362Z,92.45
2022-11-18T20:14:08.046Z,92.44
2022-11-18T20:16:37.107Z,92.47
2022-11-18T20:19:16.890Z,92.51
2022-11-18T20:21:47.460Z,92.51
2022-11-18T20:24:18.715Z,92.59
2022-11-18T20:26:48.394Z,92.45
2022-11-18T20:29:21.500Z,92.57
2022-11-18T20:31:53.466Z,92.69
2022-11-18T20:34:24.060Z,92.71
2022-11-18T20:53:30.127Z,93.05
